Antares — DFJQ — position and weather

sailwx.info

Track history (hours):
 
Tides and Currents Weather Stations Pressure Air Temp Water Temp Dewpoint Dewpoint Depression Visibility Wind Speed Wind Dir Waves Ship Positions

Antares

Last reported at 2016-Jun-29 19:33 UTC. Time now 2016-Jun-29 20:13 UTC.
Position N 51°25' E 001°23'.

Length 79 m; draft 5.3 m.

Type: Ship. MMSI: 218777000.

Date/timePositionNaut miles runAvg speedWind from/ knotsBaromVisibWave heightAir tempDewpointWater temp
2016-Jun-29 19:33N 51°25' E 001°23'0 0.1
2016-Jun-29 18:33N 51°25' E 001°23'5 5.2
2016-Jun-29 17:34N 51°27' E 001°31'7 7.3
2016-Jun-29 16:34N 51°30' E 001°41'7 7.3
2016-Jun-29 15:34N 51°34' E 001°51'8 7.7
2016-Jun-29 14:33N 51°38' E 002°01'61 6.8
2016-Jun-29 05:33N 52°03' E 003°32'7 7.4
2016-Jun-29 04:33N 52°03' E 003°44'7 7.0
2016-Jun-29 03:33N 52°02' E 003°55'9 9.0
2016-Jun-29 02:34N 51°58' E 004°08'3 3.2
2016-Jun-29 01:31N 51°56' E 004°12'0 0.0
2016-Jun-29 00:31N 51°56' E 004°12'0 0.0
2016-Jun-28 23:28N 51°56' E 004°12'0 0.0
2016-Jun-28 22:31N 51°56' E 004°12'0 0.0
2016-Jun-28 21:31N 51°56' E 004°12'0 0.0
2016-Jun-28 20:31N 51°56' E 004°12'0 0.0
2016-Jun-28 19:31N 51°56' E 004°12'0 0.0
2016-Jun-28 18:32N 51°56' E 004°12'0 0.0
2016-Jun-28 17:31N 51°56' E 004°12'0 0.0
2016-Jun-28 16:28N 51°56' E 004°12'0 0.0
2016-Jun-28 15:31N 51°56' E 004°12'0 0.0
2016-Jun-28 14:31N 51°56' E 004°12'0 0.1
2016-Jun-28 13:34N 51°56' E 004°12'8 8.5
2016-Jun-28 12:33N 51°60' E 003°60'8 8.2
2016-Jun-28 11:33N 51°58' E 003°47'3 2.5
2016-Jun-28 10:29N 51°55' E 003°48'0 0.0
2016-Jun-28 09:29N 51°55' E 003°48'0 0.0
2016-Jun-28 08:32N 51°55' E 003°48'0 0.0
2016-Jun-28 07:32N 51°55' E 003°48'0 0.0
2016-Jun-28 06:32N 51°55' E 003°48'0 0.1
2016-Jun-28 04:29N 51°55' E 003°47'0 0.0
2016-Jun-28 03:23N 51°55' E 003°47'0 0.0
2016-Jun-28 02:29N 51°55' E 003°47'0 0.0
2016-Jun-28 01:32N 51°55' E 003°48'0 0.1
2016-Jun-28 00:32N 51°55' E 003°48'0 0.1
2016-Jun-27 23:32N 51°55' E 003°48'0 0.0
2016-Jun-27 22:32N 51°55' E 003°48'0 0.0
2016-Jun-27 21:32N 51°55' E 003°48'0 0.0
2016-Jun-27 20:32N 51°55' E 003°48'0 0.0
2016-Jun-27 19:29N 51°55' E 003°48'0 0.0
2016-Jun-27 18:23N 51°55' E 003°48'0 0.1
2016-Jun-27 17:23N 51°55' E 003°48'0 0.1
2016-Jun-27 16:29N 51°55' E 003°48'0 0.0
2016-Jun-27 15:29N 51°55' E 003°48'0 0.0
2016-Jun-27 14:32N 51°55' E 003°48'0 0.0
2016-Jun-27 13:32N 51°55' E 003°48'0 0.0
2016-Jun-27 12:32N 51°55' E 003°48'0 0.1
2016-Jun-27 11:29N 51°55' E 003°48'0 0.1
2016-Jun-27 10:32N 51°55' E 003°48'0 0.1
2016-Jun-27 09:32N 51°55' E 003°48'0 0.0
2016-Jun-27 08:32N 51°55' E 003°48'0 0.0
2016-Jun-27 07:29N 51°55' E 003°48'0 0.0
2016-Jun-27 06:32N 51°55' E 003°48'0 0.0
2016-Jun-27 05:32N 51°55' E 003°48'0 0.0
2016-Jun-27 04:32N 51°55' E 003°48'0 0.0
2016-Jun-27 03:32N 51°55' E 003°48'0 0.0
2016-Jun-27 02:32N 51°55' E 003°48'0 0.1
2016-Jun-27 01:32N 51°55' E 003°48'0 0.1
2016-Jun-27 00:32N 51°55' E 003°48'0 0.0
2016-Jun-26 23:32N 51°55' E 003°48'0 0.0
2016-Jun-26 22:29N 51°55' E 003°48'0 0.0
2016-Jun-26 21:29N 51°55' E 003°48'0 0.0
2016-Jun-26 20:29N 51°55' E 003°48'0 0.0
2016-Jun-26 19:32N 51°55' E 003°48'0 0.0
2016-Jun-26 18:29N 51°55' E 003°48'0 0.0
2016-Jun-26 17:32N 51°55' E 003°48'0 0.0
2016-Jun-26 16:32N 51°55' E 003°48'0 0.2
2016-Jun-26 15:32N 51°55' E 003°48'0 0.0
2016-Jun-26 14:32N 51°55' E 003°48'0 0.0
2016-Jun-26 13:32N 51°55' E 003°48'0 0.0
2016-Jun-26 12:32N 51°55' E 003°48'0 0.1
2016-Jun-26 11:29N 51°55' E 003°48'0 0.0
2016-Jun-26 10:32N 51°55' E 003°48'7 7.0
2016-Jun-26 09:33N 51°57' E 003°37'4410.8
2016-Jun-26 05:29N 51°40' E 002°31'1111.3
2016-Jun-26 04:32N 51°31' E 002°20'1111.6
2016-Jun-26 03:33N 51°23' E 002°09'1110.9
2016-Jun-26 02:33N 51°13' E 002°01'1211.6
2016-Jun-26 01:33N 51°06' E 001°46'1110.8
2016-Jun-26 00:33N 50°58' E 001°34'9 9.3
2016-Jun-25 23:33N 50°50' E 001°27'9 8.7
2016-Jun-25 22:33N 50°42' E 001°21'45 8.9
2016-Jun-25 17:33N 50°21' E 000°20'9 9.2
2016-Jun-25 16:33N 50°18' E 000°06'9 9.5
2016-Jun-25 15:33N 50°16' W 000°08'10 9.9
2016-Jun-25 14:33N 50°13' W 000°24'1110.9
2016-Jun-25 13:33N 50°10' W 000°40'1212.2
2016-Jun-25 12:33N 50°07' W 000°58'1312.8
2016-Jun-25 11:33N 50°04' W 001°18'1413.6
2016-Jun-25 10:33N 50°02' W 001°38'3712.0
2016-Jun-25 07:28N 49°52' W 002°34'9 9.9
2016-Jun-25 06:33N 49°50' W 002°48'10 9.3
2016-Jun-25 05:28N 49°48' W 003°03'8 8.8
2016-Jun-25 04:33N 49°46' W 003°15'9 8.6
2016-Jun-25 03:33N 49°46' W 003°28'9 8.8
2016-Jun-25 02:33N 49°45' W 003°42'9 9.0
2016-Jun-25 01:32N 49°44' W 003°56'163 7.3
2016-Jun-24 03:11N 52°13' W 005°41'99 8.5
2016-Jun-23 15:32N 53°34' W 004°07'1111.5
2016-Jun-23 14:33N 53°34' W 003°48'1110.6
2016-Jun-23 13:33N 53°33' W 003°30'1010.0
2016-Jun-23 12:33N 53°31' W 003°13'8 8.0
2016-Jun-23 11:34N 53°27' W 003°02'3 2.9
2016-Jun-23 10:33N 53°24' W 003°01'0 0.1
2016-Jun-23 09:34N 53°24' W 003°01'1 1.1
2016-Jun-23 08:33N 53°25' W 003°03'0 0.0
2016-Jun-23 07:33N 53°25' W 003°03'0 0.0
2016-Jun-23 05:33N 53°25' W 003°03'0 0.0
2016-Jun-23 04:33N 53°25' W 003°03'0 0.0
2016-Jun-23 03:33N 53°25' W 003°03'0 0.0
2016-Jun-23 02:33N 53°25' W 003°03'0 0.0
2016-Jun-23 01:33N 53°25' W 003°03'0 0.0
2016-Jun-23 00:33N 53°25' W 003°03'0 0.0
2016-Jun-22 23:33N 53°25' W 003°03'0 0.0
2016-Jun-22 22:30N 53°25' W 003°03'0 0.0
2016-Jun-22 21:33N 53°25' W 003°03'0 0.0
2016-Jun-22 20:33N 53°25' W 003°03'0 0.0
2016-Jun-22 19:33N 53°25' W 003°03'0 0.0
2016-Jun-22 18:33N 53°25' W 003°03'0 0.0
2016-Jun-22 17:30N 53°25' W 003°03'0 0.0
2016-Jun-22 16:33N 53°25' W 003°03'0 0.0
2016-Jun-22 15:33N 53°25' W 003°03'0 0.0
2016-Jun-22 14:33N 53°25' W 003°03'0 0.0
2016-Jun-22 13:33N 53°25' W 003°03'0 0.0
2016-Jun-22 12:33N 53°25' W 003°03'0 0.0
2016-Jun-22 11:33N 53°25' W 003°03'0 0.0
2016-Jun-22 10:33N 53°25' W 003°03'0 0.0
2016-Jun-22 09:33N 53°25' W 003°03'0 0.0
2016-Jun-22 08:33N 53°25' W 003°03'0 0.0
2016-Jun-22 07:33N 53°25' W 003°03'0 0.0
2016-Jun-22 06:33N 53°25' W 003°03'0 0.0
2016-Jun-22 05:33N 53°25' W 003°03'0 0.0
2016-Jun-22 04:33N 53°25' W 003°03'0 0.0
2016-Jun-22 03:33N 53°25' W 003°03'0 0.0
2016-Jun-22 02:30N 53°25' W 003°03'0 0.0
2016-Jun-22 01:33N 53°25' W 003°03'1 1.1
2016-Jun-22 00:33N 53°24' W 003°01'0 0.2
2016-Jun-21 23:33N 53°24' W 003°01'3 2.8
2016-Jun-21 22:33N 53°27' W 003°02'8 7.7
2016-Jun-21 21:33N 53°31' W 003°13'6 6.4
2016-Jun-21 20:33N 53°30' W 003°24'2 2.0
2016-Jun-21 19:29N 53°29' W 003°27'0 0.1
2016-Jun-21 18:29N 53°30' W 003°27'0 0.1
2016-Jun-21 17:29N 53°30' W 003°27'0 0.1
2016-Jun-21 16:32N 53°29' W 003°28'0 0.0
2016-Jun-21 15:32N 53°29' W 003°28'0 0.0
2016-Jun-21 14:32N 53°29' W 003°28'0 0.0
2016-Jun-21 13:32N 53°29' W 003°28'0 0.4
2016-Jun-21 12:33N 53°30' W 003°28'9 9.3
2016-Jun-21 11:33N 53°31' W 003°43'1110.6
2016-Jun-21 10:33N 53°31' W 004°01'80 8.8
2016-Jun-21 01:25N 52°27' W 005°24'7 7.8
2016-Jun-21 00:31N 52°20' W 005°27'9 8.9
2016-Jun-20 23:33N 52°12' W 005°32'1010.2
2016-Jun-20 22:31N 52°03' W 005°38'6210.1
2016-Jun-20 16:21N 51°01' W 005°50'7 9.0
2016-Jun-20 15:33N 50°54' W 005°52'10 9.2
2016-Jun-20 14:29N 50°44' W 005°54'9 9.1
2016-Jun-20 13:32N 50°35' W 005°53'9 9.0
2016-Jun-20 12:33N 50°27' W 005°52'8 8.4
2016-Jun-20 11:33N 50°18' W 005°54'26 6.4
2016-Jun-20 07:27N 49°57' W 005°32'18 5.6
2016-Jun-20 04:18N 49°52' W 005°05'6 5.3
2016-Jun-20 03:14N 49°53' W 004°56'4 5.9
2016-Jun-20 02:33N 49°53' W 004°50'7 6.6
2016-Jun-20 01:31N 49°54' W 004°39'7 7.0
2016-Jun-20 00:32N 49°55' W 004°29'9 7.8
2016-Jun-19 23:26N 49°56' W 004°16'9 8.5
2016-Jun-19 22:21N 49°57' W 004°01'7 8.6
2016-Jun-19 21:33N 49°58' W 003°51'9 8.2
2016-Jun-19 20:31N 49°59' W 003°38'7 7.7
2016-Jun-19 19:33N 49°60' W 003°26'  
Track history (hours):
 
Tides and Currents Weather Stations Pressure Air Temp Water Temp Dewpoint Dewpoint Depression Visibility Wind Speed Wind Dir Waves Ship Positions

Antares

Last reported at 2016-Jun-29 19:33 UTC. Time now 2016-Jun-29 20:13 UTC.
Position N 51°25' E 001°23'.

Length 79 m; draft 5.3 m.

Type: Ship. MMSI: 218777000.

Date/timePositionNaut miles runAvg speedWind from/ knotsBaromVisibWave heightAir tempDewpointWater temp
2016-Jun-29 19:33N 51°25' E 001°23'0 0.1
2016-Jun-29 18:33N 51°25' E 001°23'5 5.2
2016-Jun-29 17:34N 51°27' E 001°31'7 7.3
2016-Jun-29 16:34N 51°30' E 001°41'7 7.3
2016-Jun-29 15:34N 51°34' E 001°51'8 7.7
2016-Jun-29 14:33N 51°38' E 002°01'61 6.8
2016-Jun-29 05:33N 52°03' E 003°32'7 7.4
2016-Jun-29 04:33N 52°03' E 003°44'7 7.0
2016-Jun-29 03:33N 52°02' E 003°55'9 9.0
2016-Jun-29 02:34N 51°58' E 004°08'3 3.2
2016-Jun-29 01:31N 51°56' E 004°12'0 0.0
2016-Jun-29 00:31N 51°56' E 004°12'0 0.0
2016-Jun-28 23:28N 51°56' E 004°12'0 0.0
2016-Jun-28 22:31N 51°56' E 004°12'0 0.0
2016-Jun-28 21:31N 51°56' E 004°12'0 0.0
2016-Jun-28 20:31N 51°56' E 004°12'0 0.0
2016-Jun-28 19:31N 51°56' E 004°12'0 0.0
2016-Jun-28 18:32N 51°56' E 004°12'0 0.0
2016-Jun-28 17:31N 51°56' E 004°12'0 0.0
2016-Jun-28 16:28N 51°56' E 004°12'0 0.0
2016-Jun-28 15:31N 51°56' E 004°12'0 0.0
2016-Jun-28 14:31N 51°56' E 004°12'0 0.1
2016-Jun-28 13:34N 51°56' E 004°12'8 8.5
2016-Jun-28 12:33N 51°60' E 003°60'8 8.2
2016-Jun-28 11:33N 51°58' E 003°47'3 2.5
2016-Jun-28 10:29N 51°55' E 003°48'0 0.0
2016-Jun-28 09:29N 51°55' E 003°48'0 0.0
2016-Jun-28 08:32N 51°55' E 003°48'0 0.0
2016-Jun-28 07:32N 51°55' E 003°48'0 0.0
2016-Jun-28 06:32N 51°55' E 003°48'0 0.1
2016-Jun-28 04:29N 51°55' E 003°47'0 0.0
2016-Jun-28 03:23N 51°55' E 003°47'0 0.0
2016-Jun-28 02:29N 51°55' E 003°47'0 0.0
2016-Jun-28 01:32N 51°55' E 003°48'0 0.1
2016-Jun-28 00:32N 51°55' E 003°48'0 0.1
2016-Jun-27 23:32N 51°55' E 003°48'0 0.0
2016-Jun-27 22:32N 51°55' E 003°48'0 0.0
2016-Jun-27 21:32N 51°55' E 003°48'0 0.0
2016-Jun-27 20:32N 51°55' E 003°48'0 0.0
2016-Jun-27 19:29N 51°55' E 003°48'0 0.0
2016-Jun-27 18:23N 51°55' E 003°48'0 0.1
2016-Jun-27 17:23N 51°55' E 003°48'0 0.1
2016-Jun-27 16:29N 51°55' E 003°48'0 0.0
2016-Jun-27 15:29N 51°55' E 003°48'0 0.0
2016-Jun-27 14:32N 51°55' E 003°48'0 0.0
2016-Jun-27 13:32N 51°55' E 003°48'0 0.0
2016-Jun-27 12:32N 51°55' E 003°48'0 0.1
2016-Jun-27 11:29N 51°55' E 003°48'0 0.1
2016-Jun-27 10:32N 51°55' E 003°48'0 0.1
2016-Jun-27 09:32N 51°55' E 003°48'0 0.0
2016-Jun-27 08:32N 51°55' E 003°48'0 0.0
2016-Jun-27 07:29N 51°55' E 003°48'0 0.0
2016-Jun-27 06:32N 51°55' E 003°48'0 0.0
2016-Jun-27 05:32N 51°55' E 003°48'0 0.0
2016-Jun-27 04:32N 51°55' E 003°48'0 0.0
2016-Jun-27 03:32N 51°55' E 003°48'0 0.0
2016-Jun-27 02:32N 51°55' E 003°48'0 0.1
2016-Jun-27 01:32N 51°55' E 003°48'0 0.1
2016-Jun-27 00:32N 51°55' E 003°48'0 0.0
2016-Jun-26 23:32N 51°55' E 003°48'0 0.0
2016-Jun-26 22:29N 51°55' E 003°48'0 0.0
2016-Jun-26 21:29N 51°55' E 003°48'0 0.0
2016-Jun-26 20:29N 51°55' E 003°48'0 0.0
2016-Jun-26 19:32N 51°55' E 003°48'0 0.0
2016-Jun-26 18:29N 51°55' E 003°48'0 0.0
2016-Jun-26 17:32N 51°55' E 003°48'0 0.0
2016-Jun-26 16:32N 51°55' E 003°48'0 0.2
2016-Jun-26 15:32N 51°55' E 003°48'0 0.0
2016-Jun-26 14:32N 51°55' E 003°48'0 0.0
2016-Jun-26 13:32N 51°55' E 003°48'0 0.0
2016-Jun-26 12:32N 51°55' E 003°48'0 0.1
2016-Jun-26 11:29N 51°55' E 003°48'0 0.0
2016-Jun-26 10:32N 51°55' E 003°48'7 7.0
2016-Jun-26 09:33N 51°57' E 003°37'4410.8
2016-Jun-26 05:29N 51°40' E 002°31'1111.3
2016-Jun-26 04:32N 51°31' E 002°20'1111.6
2016-Jun-26 03:33N 51°23' E 002°09'1110.9
2016-Jun-26 02:33N 51°13' E 002°01'1211.6
2016-Jun-26 01:33N 51°06' E 001°46'1110.8
2016-Jun-26 00:33N 50°58' E 001°34'9 9.3
2016-Jun-25 23:33N 50°50' E 001°27'9 8.7
2016-Jun-25 22:33N 50°42' E 001°21'45 8.9
2016-Jun-25 17:33N 50°21' E 000°20'9 9.2
2016-Jun-25 16:33N 50°18' E 000°06'9 9.5
2016-Jun-25 15:33N 50°16' W 000°08'10 9.9
2016-Jun-25 14:33N 50°13' W 000°24'1110.9
2016-Jun-25 13:33N 50°10' W 000°40'1212.2
2016-Jun-25 12:33N 50°07' W 000°58'1312.8
2016-Jun-25 11:33N 50°04' W 001°18'1413.6
2016-Jun-25 10:33N 50°02' W 001°38'3712.0
2016-Jun-25 07:28N 49°52' W 002°34'9 9.9
2016-Jun-25 06:33N 49°50' W 002°48'10 9.3
2016-Jun-25 05:28N 49°48' W 003°03'8 8.8
2016-Jun-25 04:33N 49°46' W 003°15'9 8.6
2016-Jun-25 03:33N 49°46' W 003°28'9 8.8
2016-Jun-25 02:33N 49°45' W 003°42'9 9.0
2016-Jun-25 01:32N 49°44' W 003°56'163 7.3
2016-Jun-24 03:11N 52°13' W 005°41'99 8.5
2016-Jun-23 15:32N 53°34' W 004°07'1111.5
2016-Jun-23 14:33N 53°34' W 003°48'1110.6
2016-Jun-23 13:33N 53°33' W 003°30'1010.0
2016-Jun-23 12:33N 53°31' W 003°13'8 8.0
2016-Jun-23 11:34N 53°27' W 003°02'3 2.9
2016-Jun-23 10:33N 53°24' W 003°01'0 0.1
2016-Jun-23 09:34N 53°24' W 003°01'1 1.1
2016-Jun-23 08:33N 53°25' W 003°03'0 0.0
2016-Jun-23 07:33N 53°25' W 003°03'0 0.0
2016-Jun-23 05:33N 53°25' W 003°03'0 0.0
2016-Jun-23 04:33N 53°25' W 003°03'0 0.0
2016-Jun-23 03:33N 53°25' W 003°03'0 0.0
2016-Jun-23 02:33N 53°25' W 003°03'0 0.0
2016-Jun-23 01:33N 53°25' W 003°03'0 0.0
2016-Jun-23 00:33N 53°25' W 003°03'0 0.0
2016-Jun-22 23:33N 53°25' W 003°03'0 0.0
2016-Jun-22 22:30N 53°25' W 003°03'0 0.0
2016-Jun-22 21:33N 53°25' W 003°03'0 0.0
2016-Jun-22 20:33N 53°25' W 003°03'0 0.0
2016-Jun-22 19:33N 53°25' W 003°03'0 0.0
2016-Jun-22 18:33N 53°25' W 003°03'0 0.0
2016-Jun-22 17:30N 53°25' W 003°03'0 0.0
2016-Jun-22 16:33N 53°25' W 003°03'0 0.0
2016-Jun-22 15:33N 53°25' W 003°03'0 0.0
2016-Jun-22 14:33N 53°25' W 003°03'0 0.0
2016-Jun-22 13:33N 53°25' W 003°03'0 0.0
2016-Jun-22 12:33N 53°25' W 003°03'0 0.0
2016-Jun-22 11:33N 53°25' W 003°03'0 0.0
2016-Jun-22 10:33N 53°25' W 003°03'0 0.0
2016-Jun-22 09:33N 53°25' W 003°03'0 0.0
2016-Jun-22 08:33N 53°25' W 003°03'0 0.0
2016-Jun-22 07:33N 53°25' W 003°03'0 0.0
2016-Jun-22 06:33N 53°25' W 003°03'0 0.0
2016-Jun-22 05:33N 53°25' W 003°03'0 0.0
2016-Jun-22 04:33N 53°25' W 003°03'0 0.0
2016-Jun-22 03:33N 53°25' W 003°03'0 0.0
2016-Jun-22 02:30N 53°25' W 003°03'0 0.0
2016-Jun-22 01:33N 53°25' W 003°03'1 1.1
2016-Jun-22 00:33N 53°24' W 003°01'0 0.2
2016-Jun-21 23:33N 53°24' W 003°01'3 2.8
2016-Jun-21 22:33N 53°27' W 003°02'8 7.7
2016-Jun-21 21:33N 53°31' W 003°13'6 6.4
2016-Jun-21 20:33N 53°30' W 003°24'2 2.0
2016-Jun-21 19:29N 53°29' W 003°27'0 0.1
2016-Jun-21 18:29N 53°30' W 003°27'0 0.1
2016-Jun-21 17:29N 53°30' W 003°27'0 0.1
2016-Jun-21 16:32N 53°29' W 003°28'0 0.0
2016-Jun-21 15:32N 53°29' W 003°28'0 0.0
2016-Jun-21 14:32N 53°29' W 003°28'0 0.0
2016-Jun-21 13:32N 53°29' W 003°28'0 0.4
2016-Jun-21 12:33N 53°30' W 003°28'9 9.3
2016-Jun-21 11:33N 53°31' W 003°43'1110.6
2016-Jun-21 10:33N 53°31' W 004°01'80 8.8
2016-Jun-21 01:25N 52°27' W 005°24'7 7.8
2016-Jun-21 00:31N 52°20' W 005°27'9 8.9
2016-Jun-20 23:33N 52°12' W 005°32'1010.2
2016-Jun-20 22:31N 52°03' W 005°38'6210.1
2016-Jun-20 16:21N 51°01' W 005°50'7 9.0
2016-Jun-20 15:33N 50°54' W 005°52'10 9.2
2016-Jun-20 14:29N 50°44' W 005°54'9 9.1
2016-Jun-20 13:32N 50°35' W 005°53'9 9.0
2016-Jun-20 12:33N 50°27' W 005°52'8 8.4
2016-Jun-20 11:33N 50°18' W 005°54'26 6.4
2016-Jun-20 07:27N 49°57' W 005°32'18 5.6
2016-Jun-20 04:18N 49°52' W 005°05'6 5.3
2016-Jun-20 03:14N 49°53' W 004°56'4 5.9
2016-Jun-20 02:33N 49°53' W 004°50'7 6.6
2016-Jun-20 01:31N 49°54' W 004°39'7 7.0
2016-Jun-20 00:32N 49°55' W 004°29'9 7.8
2016-Jun-19 23:26N 49°56' W 004°16'9 8.5
2016-Jun-19 22:21N 49°57' W 004°01'7 8.6
2016-Jun-19 21:33N 49°58' W 003°51'9 8.2
2016-Jun-19 20:31N 49°59' W 003°38'7 7.7
2016-Jun-19 19:33N 49°60' W 003°26'  

Dump ship's entire track history